Time;durP1;ratioP1;P1;durP2;ratioP2;P2;SDS_P1;SDS_P2;PMS_P1;PMS_P2;Temp;Humidity;BMP_temperature;BMP_pressure;BME280_temperature;BME280_humidity;BME280_pressure;Samples;Min_cycle;Max_cycle;Signal;HPM_P1;HPM_P2
2022/03/09 00:02:15;;;;;;;16.83;13.23;;;8.60;1.00;;;;;;5033699;28;20030;-87
2022/03/09 00:04:41;;;;;;;18.13;11.93;;;8.50;1.00;;;;;;5032537;28;20417;-88
2022/03/09 00:07:06;;;;;;;15.35;12.68;;;8.50;1.00;;;;;;5033574;28;20063;-87
2022/03/09 00:09:32;;;;;;;17.38;12.60;;;8.50;1.00;;;;;;5032477;28;20396;-87
2022/03/09 00:11:58;;;;;;;18.33;12.05;;;8.50;1.00;;;;;;5025976;28;20026;-87
2022/03/09 00:14:23;;;;;;;17.92;12.98;;;8.50;1.00;;;;;;5015845;28;20025;-87
2022/03/09 00:16:50;;;;;;;17.23;12.15;;;8.50;1.00;;;;;;5011600;28;20033;-87
2022/03/09 00:19:16;;;;;;;19.88;13.32;;;8.60;1.00;;;;;;5033249;28;20026;-87
2022/03/09 00:21:42;;;;;;;17.48;13.25;;;8.60;1.00;;;;;;5032840;28;20053;-87
2022/03/09 00:24:08;;;;;;;17.42;13.00;;;8.60;1.00;;;;;;5031415;28;20040;-87
2022/03/09 00:26:34;;;;;;;18.02;13.68;;;8.70;1.00;;;;;;5026979;28;20017;-87
2022/03/09 00:28:59;;;;;;;20.00;12.90;;;8.70;1.00;;;;;;5015588;28;20029;-87
2022/03/09 00:31:25;;;;;;;19.13;13.80;;;8.80;1.00;;;;;;5033629;28;20493;-88
2022/03/09 00:33:51;;;;;;;17.98;13.40;;;8.80;1.00;;;;;;5015325;28;20040;-87
2022/03/09 00:36:16;;;;;;;20.33;13.23;;;8.60;1.00;;;;;;5033174;28;20029;-88
2022/03/09 00:38:42;;;;;;;18.33;12.82;;;8.50;1.00;;;;;;5033422;28;20440;-87
2022/03/09 00:41:07;;;;;;;19.77;13.23;;;8.50;1.00;;;;;;5015863;28;20112;-87
2022/03/09 00:43:33;;;;;;;19.65;13.73;;;8.50;1.00;;;;;;5015352;28;20401;-87
2022/03/09 00:45:59;;;;;;;19.50;14.60;;;8.50;1.00;;;;;;5033177;28;20025;-87
2022/03/09 00:48:24;;;;;;;19.42;14.00;;;8.40;1.00;;;;;;5015181;28;20029;-87
2022/03/09 00:50:50;;;;;;;17.25;12.85;;;8.40;1.00;;;;;;5039177;28;20022;-88
2022/03/09 00:53:16;;;;;;;16.33;12.85;;;8.40;1.00;;;;;;5015382;28;20033;-87
2022/03/09 00:55:41;;;;;;;17.35;13.50;;;8.40;1.00;;;;;;5033065;28;20533;-87
2022/03/09 00:58:07;;;;;;;16.65;13.07;;;8.50;1.00;;;;;;5032857;28;20026;-87
2022/03/09 01:00:33;;;;;;;19.17;13.52;;;8.40;1.00;;;;;;5032924;28;20071;-87
2022/03/09 01:02:58;;;;;;;17.60;13.68;;;8.50;1.00;;;;;;5032511;28;20112;-87
2022/03/09 01:05:24;;;;;;;16.73;14.02;;;8.50;1.00;;;;;;5032213;28;20021;-88
2022/03/09 01:07:50;;;;;;;16.17;13.23;;;8.40;1.00;;;;;;5032753;28;20048;-87
2022/03/09 01:10:15;;;;;;;17.92;14.25;;;8.50;1.00;;;;;;5033127;28;20021;-87
2022/03/09 01:12:41;;;;;;;18.73;13.45;;;8.50;1.00;;;;;;5032706;28;20034;-87
2022/03/09 01:15:07;;;;;;;19.65;14.75;;;8.50;1.00;;;;;;5021858;28;20021;-86
2022/03/09 01:17:33;;;;;;;20.05;14.68;;;8.40;1.00;;;;;;5022260;28;20569;-87
2022/03/09 01:19:59;;;;;;;18.25;14.02;;;8.80;1.00;;;;;;5001989;28;20112;-87
2022/03/09 01:22:24;;;;;;;19.50;14.68;;;8.70;1.00;;;;;;5032525;28;20136;-88
2022/03/09 01:24:50;;;;;;;19.83;15.02;;;8.30;1.00;;;;;;5031588;28;20121;-87
2022/03/09 01:27:16;;;;;;;22.48;14.88;;;8.40;1.00;;;;;;5032947;28;20029;-87
2022/03/09 01:29:41;;;;;;;17.30;13.85;;;8.70;1.00;;;;;;5031473;28;20060;-87
2022/03/09 01:32:08;;;;;;;19.05;14.70;;;8.30;1.00;;;;;;5038337;28;20025;-87
2022/03/09 01:34:33;;;;;;;20.52;15.68;;;8.20;1.00;;;;;;5050415;28;20104;-87
2022/03/09 01:36:59;;;;;;;19.95;15.15;;;8.10;1.00;;;;;;5035394;28;20041;-87
2022/03/09 01:39:25;;;;;;;18.98;15.15;;;8.10;1.00;;;;;;5031066;28;20417;-87
2022/03/09 01:41:51;;;;;;;19.17;14.68;;;8.10;1.00;;;;;;5036347;28;20021;-87
2022/03/09 01:44:20;;;;;;;18.50;15.35;;;8.10;1.00;;;;;;5018715;28;20398;-87
2022/03/09 01:46:48;;;;;;;20.20;15.18;;;8.10;1.00;;;;;;5014798;28;20026;-87
2022/03/09 01:49:14;;;;;;;18.17;14.65;;;8.00;1.00;;;;;;5016260;28;20060;-86
2022/03/09 01:51:42;;;;;;;19.75;14.35;;;8.00;1.00;;;;;;5032309;28;20036;-87
2022/03/09 01:54:09;;;;;;;19.70;14.65;;;8.00;1.00;;;;;;5023392;28;20029;-88
2022/03/09 01:56:36;;;;;;;18.77;14.18;;;8.00;1.00;;;;;;5035892;28;20083;-87
2022/03/09 01:59:03;;;;;;;21.20;13.88;;;7.90;1.00;;;;;;5018578;28;20433;-87
2022/03/09 02:01:29;;;;;;;18.35;14.25;;;7.90;1.00;;;;;;5036031;28;20029;-87
2022/03/09 02:03:56;;;;;;;17.77;14.13;;;7.80;1.00;;;;;;5035760;28;20433;-87
2022/03/09 02:06:22;;;;;;;18.83;14.30;;;7.80;1.00;;;;;;5018482;28;20025;-87
2022/03/09 02:11:34;;;;;;;18.27;14.50;;;7.80;1.00;;;;;;5036171;28;20040;-86
2022/03/09 02:14:00;;;;;;;18.92;14.48;;;8.10;1.00;;;;;;5036171;28;20033;-88
2022/03/09 02:16:26;;;;;;;18.73;13.63;;;8.10;1.00;;;;;;5016468;28;20429;-87
2022/03/09 02:18:52;;;;;;;19.60;13.50;;;8.10;1.00;;;;;;5016082;28;20029;-87
2022/03/09 02:21:19;;;;;;;21.08;14.90;;;7.80;1.00;;;;;;5030124;28;20029;-87
2022/03/09 02:23:46;;;;;;;20.60;13.70;;;7.70;1.00;;;;;;5026215;28;20037;-87
2022/03/09 02:26:12;;;;;;;20.63;14.18;;;7.70;1.00;;;;;;5035893;28;20033;-87
2022/03/09 02:28:48;;;;;;;18.80;13.55;;;7.70;1.00;;;;;;5017831;28;20038;-87
2022/03/09 02:31:13;;;;;;;18.00;13.00;;;7.90;1.00;;;;;;5034124;28;20045;-87
2022/03/09 02:33:44;;;;;;;19.90;13.57;;;7.90;1.00;;;;;;5035370;28;20473;-87
2022/03/09 02:36:10;;;;;;;19.98;12.98;;;8.00;1.00;;;;;;5034509;28;20171;-87
2022/03/09 02:38:35;;;;;;;17.15;13.48;;;7.90;1.00;;;;;;5035598;28;20556;-87
2022/03/09 02:41:01;;;;;;;18.92;13.73;;;8.20;1.00;;;;;;5019355;28;20408;-87
2022/03/09 02:43:27;;;;;;;16.48;13.15;;;8.00;1.00;;;;;;5019892;28;20109;-88
2022/03/09 02:45:52;;;;;;;17.38;13.85;;;7.80;1.00;;;;;;5034836;28;20052;-87
2022/03/09 02:48:18;;;;;;;19.95;14.00;;;8.10;1.00;;;;;;5034218;28;20079;-87
2022/03/09 02:50:44;;;;;;;19.30;13.20;;;7.70;1.00;;;;;;5035280;28;20103;-87
2022/03/09 02:53:10;;;;;;;18.20;13.15;;;7.80;1.00;;;;;;5035193;28;20387;-87
2022/03/09 02:55:36;;;;;;;16.65;12.88;;;7.40;1.00;;;;;;5036177;28;20071;-87
2022/03/09 02:58:02;;;;;;;17.50;12.85;;;7.80;1.00;;;;;;5055187;28;20025;-86
2022/03/09 03:00:27;;;;;;;19.02;13.50;;;7.70;1.00;;;;;;5036678;28;20040;-87
2022/03/09 03:02:53;;;;;;;17.73;13.50;;;7.30;1.00;;;;;;5026022;28;20378;-86
2022/03/09 03:05:19;;;;;;;17.55;13.20;;;7.20;1.00;;;;;;5035291;28;21321;-87
2022/03/09 03:07:44;;;;;;;17.45;13.38;;;7.00;1.00;;;;;;5018008;28;20052;-87
2022/03/09 03:10:10;;;;;;;18.80;13.73;;;7.00;1.00;;;;;;5034896;28;20401;-88
2022/03/09 03:12:36;;;;;;;15.63;12.75;;;7.40;1.00;;;;;;5018477;28;20479;-87
2022/03/09 03:15:04;;;;;;;18.45;13.90;;;7.10;1.00;;;;;;5034544;28;20028;-87
2022/03/09 03:17:29;;;;;;;19.48;14.15;;;6.90;1.00;;;;;;5034670;28;20033;-87
2022/03/09 03:19:55;;;;;;;19.15;14.32;;;6.80;1.00;;;;;;5032438;28;20095;-87
2022/03/09 03:22:21;;;;;;;16.52;13.38;;;6.60;1.00;;;;;;5034472;28;20115;-87
2022/03/09 03:24:46;;;;;;;19.52;13.88;;;6.60;1.00;;;;;;5033524;28;20057;-87
2022/03/09 03:27:12;;;;;;;17.75;13.68;;;6.70;1.00;;;;;;5034642;28;20022;-88
2022/03/09 03:29:38;;;;;;;17.40;12.85;;;6.60;1.00;;;;;;5025858;28;20044;-88
2022/03/09 03:32:04;;;;;;;17.30;13.48;;;6.50;1.00;;;;;;5016761;28;20025;-87
2022/03/09 03:34:29;;;;;;;15.55;13.25;;;6.60;1.00;;;;;;5016484;28;20030;-87
2022/03/09 03:36:55;;;;;;;17.58;13.52;;;6.50;1.00;;;;;;5016718;28;20410;-87
2022/03/09 03:39:20;;;;;;;22.00;14.48;;;6.20;1.00;;;;;;5051307;28;20047;-87
2022/03/09 03:41:46;;;;;;;18.92;14.35;;;6.60;1.00;;;;;;5054108;28;20447;-87
2022/03/09 03:44:12;;;;;;;17.73;14.00;;;6.30;1.00;;;;;;5035594;28;20032;-87
2022/03/09 03:46:37;;;;;;;17.52;13.82;;;6.20;1.00;;;;;;5051396;28;20496;-87
2022/03/09 03:49:04;;;;;;;17.50;13.77;;;6.60;1.00;;;;;;5034158;28;20079;-87
2022/03/09 03:51:29;;;;;;;19.00;14.13;;;6.30;1.00;;;;;;5033968;28;20022;-87
2022/03/09 03:53:55;;;;;;;19.92;13.65;;;6.40;1.00;;;;;;5003132;28;20121;-87
2022/03/09 03:56:21;;;;;;;19.00;14.07;;;6.20;1.00;;;;;;4996830;28;20109;-87
2022/03/09 03:58:46;;;;;;;20.23;14.02;;;6.20;1.00;;;;;;4995954;28;20052;-87
2022/03/09 04:01:12;;;;;;;18.77;12.80;;;6.20;1.00;;;;;;5013024;28;20523;-87
2022/03/09 04:03:37;;;;;;;19.13;13.68;;;6.40;1.00;;;;;;5014191;28;20037;-87
2022/03/09 04:06:03;;;;;;;19.77;13.35;;;6.00;1.00;;;;;;4996774;28;20022;-88
2022/03/09 04:08:29;;;;;;;17.70;13.13;;;6.00;1.00;;;;;;5022917;28;20128;-87
2022/03/09 04:10:54;;;;;;;17.27;13.75;;;5.70;1.00;;;;;;5033763;28;20021;-87
2022/03/09 04:13:20;;;;;;;16.88;13.98;;;5.40;1.00;;;;;;5032565;28;20129;-88
2022/03/09 04:15:45;;;;;;;19.63;13.98;;;5.30;1.00;;;;;;5031955;28;20029;-87
2022/03/09 04:18:11;;;;;;;19.25;14.65;;;5.30;1.00;;;;;;5034057;28;20072;-85
2022/03/09 04:20:37;;;;;;;17.77;14.00;;;5.10;1.00;;;;;;5032468;28;20057;-88
2022/03/09 04:23:06;;;;;;;21.92;13.65;;;5.10;1.00;;;;;;5033350;28;20081;-87
2022/03/09 04:25:32;;;;;;;18.58;14.25;;;5.20;1.00;;;;;;5033417;28;20025;-87
2022/03/09 04:27:57;;;;;;;22.17;15.23;;;5.30;1.00;;;;;;5032108;28;20048;-87
2022/03/09 04:30:23;;;;;;;16.60;13.65;;;5.70;1.00;;;;;;5032418;28;20026;-87
2022/03/09 04:32:48;;;;;;;20.45;13.90;;;5.40;1.00;;;;;;5023717;28;20390;-87
2022/03/09 04:35:15;;;;;;;18.30;13.82;;;5.70;1.00;;;;;;5033188;28;20478;-87
2022/03/09 04:37:41;;;;;;;21.15;14.43;;;5.40;1.00;;;;;;5032395;28;20038;-87
2022/03/09 04:40:07;;;;;;;20.15;14.20;;;5.20;1.00;;;;;;5033615;28;20017;-87
2022/03/09 04:42:33;;;;;;;17.35;12.40;;;5.10;1.00;;;;;;5014321;28;20029;-87
2022/03/09 04:44:59;;;;;;;16.73;12.32;;;5.10;1.00;;;;;;5033280;28;20030;-87
2022/03/09 04:47:25;;;;;;;18.15;13.05;;;5.30;1.00;;;;;;5033233;28;20040;-87
2022/03/09 04:49:51;;;;;;;17.27;12.60;;;5.00;1.00;;;;;;5033325;28;20517;-87
2022/03/09 04:52:18;;;;;;;19.00;13.43;;;5.50;1.00;;;;;;5033472;28;20037;-87
2022/03/09 04:54:43;;;;;;;17.63;13.07;;;5.40;1.00;;;;;;5013590;28;20549;-88
2022/03/09 04:57:09;;;;;;;20.15;14.35;;;5.20;1.00;;;;;;4995755;28;20022;-87
2022/03/09 04:59:35;;;;;;;19.95;14.27;;;5.20;1.00;;;;;;5013687;28;20026;-87
2022/03/09 05:02:00;;;;;;;20.13;14.32;;;5.30;1.00;;;;;;4996066;28;20068;-87
2022/03/09 05:04:26;;;;;;;20.95;15.55;;;5.00;1.00;;;;;;4996954;28;20083;-88
2022/03/09 05:06:52;;;;;;;21.63;16.17;;;4.90;1.00;;;;;;5033261;28;20018;-87
2022/03/09 05:09:17;;;;;;;21.27;15.63;;;5.10;1.00;;;;;;5033111;28;20057;-87
2022/03/09 05:11:43;;;;;;;21.40;15.85;;;4.90;1.00;;;;;;5036676;28;20151;-87
2022/03/09 05:14:08;;;;;;;21.23;16.13;;;5.40;1.00;;;;;;5037053;28;20045;-87
2022/03/09 05:16:34;;;;;;;23.00;15.90;;;4.90;1.00;;;;;;5035731;28;21157;-87
2022/03/09 05:19:00;;;;;;;23.83;15.98;;;5.20;1.00;;;;;;5037314;28;20021;-87
2022/03/09 05:21:25;;;;;;;22.63;15.50;;;4.80;1.00;;;;;;5036920;28;20073;-87
2022/03/09 05:23:51;;;;;;;25.38;16.35;;;5.20;1.00;;;;;;5026776;28;20037;-88
2022/03/09 05:26:17;;;;;;;22.33;16.35;;;4.80;1.00;;;;;;5036570;28;20041;-87
2022/03/09 05:28:42;;;;;;;23.58;16.52;;;4.80;1.00;;;;;;5036951;28;20033;-87
2022/03/09 05:31:08;;;;;;;24.08;17.23;;;5.00;1.00;;;;;;5036709;28;20532;-87
2022/03/09 05:33:34;;;;;;;22.13;16.98;;;5.20;1.00;;;;;;5036517;28;20599;-87
2022/03/09 05:35:59;;;;;;;21.35;16.13;;;5.20;1.00;;;;;;5036885;28;20064;-87
2022/03/09 05:38:25;;;;;;;24.02;16.98;;;5.40;1.00;;;;;;5036519;28;20025;-87
2022/03/09 05:40:51;;;;;;;22.02;16.27;;;5.00;1.00;;;;;;5018717;28;20151;-87
2022/03/09 05:43:16;;;;;;;22.48;17.58;;;5.00;1.00;;;;;;5036969;28;20034;-88
2022/03/09 05:45:42;;;;;;;24.10;18.00;;;5.00;1.00;;;;;;5015286;28;20030;-87
2022/03/09 05:48:08;;;;;;;25.85;17.27;;;5.20;1.00;;;;;;5016763;28;20117;-86
2022/03/09 05:50:35;;;;;;;23.75;16.50;;;5.00;1.00;;;;;;4999105;28;20018;-87
2022/03/09 05:53:01;;;;;;;24.88;17.35;;;5.00;1.00;;;;;;5022757;28;20033;-87
2022/03/09 05:55:26;;;;;;;21.23;16.27;;;5.30;1.00;;;;;;5036166;28;20542;-87
2022/03/09 05:57:52;;;;;;;23.73;17.25;;;5.10;1.00;;;;;;5018738;28;20022;-87
2022/03/09 06:00:17;;;;;;;22.05;16.52;;;5.10;1.00;;;;;;5018839;28;20021;-87
2022/03/09 06:02:43;;;;;;;23.00;17.20;;;5.10;1.00;;;;;;5035980;28;20071;-87
2022/03/09 06:05:09;;;;;;;24.30;17.80;;;5.10;1.00;;;;;;5021209;28;20056;-87
2022/03/09 06:07:35;;;;;;;26.13;17.50;;;5.00;1.00;;;;;;5034491;28;20481;-87
2022/03/09 06:10:01;;;;;;;25.00;17.48;;;5.20;1.00;;;;;;5035973;28;20036;-88
2022/03/09 06:12:27;;;;;;;27.65;19.05;;;4.80;1.00;;;;;;5034719;28;20029;-86
2022/03/09 06:14:52;;;;;;;24.65;16.77;;;4.80;1.00;;;;;;5034817;28;20071;-87
2022/03/09 06:17:18;;;;;;;22.83;17.30;;;4.90;1.00;;;;;;5036241;28;20044;-87
2022/03/09 06:19:43;;;;;;;24.35;18.23;;;4.90;1.00;;;;;;5035273;28;20040;-86
2022/03/09 06:22:09;;;;;;;25.25;18.08;;;4.90;1.00;;;;;;5021450;28;20056;-87
2022/03/09 06:24:35;;;;;;;24.05;17.77;;;5.40;1.00;;;;;;5035411;28;20088;-87
2022/03/09 06:27:00;;;;;;;24.73;17.80;;;4.90;1.00;;;;;;5035790;28;20057;-87
2022/03/09 06:29:26;;;;;;;25.88;17.88;;;4.90;1.00;;;;;;5023075;28;20060;-88
2022/03/09 06:31:52;;;;;;;26.27;18.70;;;4.90;1.00;;;;;;5035641;28;20022;-88
2022/03/09 06:34:17;;;;;;;27.17;18.48;;;5.10;1.00;;;;;;5035691;28;20044;-87
2022/03/09 06:36:44;;;;;;;27.33;18.52;;;5.00;1.00;;;;;;5035763;28;20105;-88
2022/03/09 06:39:16;;;;;;;27.45;18.70;;;5.20;1.00;;;;;;5017625;28;20120;-87
2022/03/09 06:41:43;;;;;;;25.77;18.42;;;5.20;1.00;;;;;;5035618;28;20089;-88
2022/03/09 06:44:09;;;;;;;27.13;18.77;;;4.90;1.00;;;;;;5035529;28;20032;-87
2022/03/09 06:46:35;;;;;;;27.13;19.02;;;5.20;1.00;;;;;;5033896;28;20406;-88
2022/03/09 06:49:01;;;;;;;26.85;19.27;;;5.00;1.00;;;;;;5017597;28;20045;-86
2022/03/09 06:51:27;;;;;;;29.27;18.35;;;5.30;1.00;;;;;;5034210;28;20022;-87
2022/03/09 06:53:53;;;;;;;25.42;18.30;;;5.40;1.00;;;;;;5024497;28;20029;-87
2022/03/09 06:56:19;;;;;;;30.75;18.55;;;5.20;1.00;;;;;;5034555;28;20021;-87
2022/03/09 06:58:45;;;;;;;25.83;18.55;;;5.20;1.00;;;;;;5034117;28;20036;-87
2022/03/09 07:01:11;;;;;;;23.17;17.58;;;5.00;1.00;;;;;;5034660;28;20033;-86
2022/03/09 07:03:37;;;;;;;25.45;19.15;;;5.30;1.00;;;;;;5020381;28;20466;-86
2022/03/09 07:06:03;;;;;;;24.70;18.30;;;5.50;1.00;;;;;;5033960;28;20497;-87
2022/03/09 07:08:28;;;;;;;27.85;18.50;;;5.20;1.00;;;;;;5029366;28;20029;-87
2022/03/09 07:10:54;;;;;;;24.25;18.90;;;5.20;1.00;;;;;;5033371;28;20105;-83
2022/03/09 07:13:20;;;;;;;25.80;18.00;;;5.90;1.00;;;;;;5015342;28;20502;-82
2022/03/09 07:15:46;;;;;;;24.92;18.60;;;6.10;1.00;;;;;;5032960;28;20060;-83
2022/03/09 07:18:12;;;;;;;26.10;18.45;;;6.30;1.00;;;;;;5017617;28;20125;-83
2022/03/09 07:20:38;;;;;;;26.63;18.38;;;6.40;1.00;;;;;;5032540;28;20017;-83
2022/03/09 07:23:03;;;;;;;26.83;18.83;;;6.70;1.00;;;;;;5032658;28;20045;-83
2022/03/09 07:25:29;;;;;;;28.50;19.58;;;6.80;1.00;;;;;;5032899;28;20022;-83
2022/03/09 07:27:55;;;;;;;29.08;18.30;;;6.80;1.00;;;;;;5033211;28;20112;-83
2022/03/09 07:30:21;;;;;;;24.88;19.15;;;6.70;1.00;;;;;;5017415;28;20237;-83
2022/03/09 07:32:47;;;;;;;26.83;19.25;;;6.80;1.00;;;;;;5032182;28;20025;-83
2022/03/09 07:35:12;;;;;;;27.95;19.40;;;6.70;1.00;;;;;;5032628;28;20029;-83
2022/03/09 07:37:38;;;;;;;25.48;18.80;;;6.80;1.00;;;;;;5032249;28;20422;-83
2022/03/09 07:40:06;;;;;;;26.55;18.75;;;6.90;1.00;;;;;;5032974;28;20289;-84
2022/03/09 07:42:32;;;;;;;27.30;19.42;;;6.90;1.00;;;;;;5032776;28;20044;-83
2022/03/09 07:44:57;;;;;;;30.38;19.83;;;6.90;1.00;;;;;;5032166;28;20033;-83
2022/03/09 07:47:23;;;;;;;27.85;20.63;;;7.00;1.00;;;;;;5032136;28;20036;-83
2022/03/09 07:49:49;;;;;;;31.52;20.27;;;7.10;1.00;;;;;;5032656;28;20489;-83
2022/03/09 07:52:14;;;;;;;27.25;19.08;;;7.10;1.00;;;;;;5032292;28;20052;-83
2022/03/09 07:54:40;;;;;;;29.15;19.50;;;7.20;1.00;;;;;;5032352;28;20083;-83
2022/03/09 07:57:05;;;;;;;28.45;20.40;;;7.20;1.00;;;;;;5031717;28;20083;-83
2022/03/09 07:59:31;;;;;;;27.40;19.15;;;7.30;1.00;;;;;;5032281;28;20116;-83
2022/03/09 08:01:57;;;;;;;26.48;20.00;;;7.40;1.00;;;;;;5032328;28;20025;-83
2022/03/09 08:04:24;;;;;;;27.58;20.45;;;7.50;1.00;;;;;;5032269;28;20026;-83
2022/03/09 08:06:51;;;;;;;24.67;19.33;;;7.70;1.00;;;;;;5031333;28;20029;-83
2022/03/09 08:09:17;;;;;;;29.67;21.33;;;7.70;1.00;;;;;;5031919;28;20047;-83
2022/03/09 08:11:44;;;;;;;28.65;20.60;;;7.70;1.00;;;;;;5031876;28;20456;-83
2022/03/09 08:14:10;;;;;;;26.65;19.08;;;7.90;1.00;;;;;;5031849;28;20079;-83
2022/03/09 08:16:36;;;;;;;25.52;20.20;;;8.00;1.00;;;;;;5031909;28;20458;-83
2022/03/09 08:19:02;;;;;;;26.77;19.92;;;8.10;1.00;;;;;;5032359;28;20060;-83
2022/03/09 08:21:28;;;;;;;25.50;19.40;;;8.40;1.00;;;;;;5031419;28;20071;-83
2022/03/09 08:23:53;;;;;;;26.05;19.40;;;8.30;1.00;;;;;;5031609;28;20128;-83
2022/03/09 08:26:19;;;;;;;33.72;19.98;;;8.60;1.00;;;;;;5031699;28;20030;-83
2022/03/09 08:28:45;;;;;;;27.45;19.60;;;8.70;1.00;;;;;;5031654;28;20068;-83
2022/03/09 08:31:10;;;;;;;24.00;18.73;;;8.80;1.00;;;;;;5032051;28;20030;-83
2022/03/09 08:33:36;;;;;;;25.58;18.77;;;8.80;1.00;;;;;;5031437;28;20108;-83
2022/03/09 08:36:02;;;;;;;28.52;17.90;;;8.90;1.00;;;;;;5031414;28;20030;-83
2022/03/09 08:38:28;;;;;;;29.00;18.40;;;9.20;1.00;;;;;;5031474;28;20071;-83
2022/03/09 08:40:54;;;;;;;26.95;18.50;;;9.20;1.00;;;;;;5031573;28;20029;-83
2022/03/09 08:43:20;;;;;;;25.25;17.27;;;9.30;1.00;;;;;;5032185;28;20375;-83
2022/03/09 08:45:46;;;;;;;18.95;16.80;;;9.50;1.00;;;;;;5030566;28;20025;-83
2022/03/09 08:48:12;;;;;;;23.17;15.85;;;9.70;1.00;;;;;;5030496;28;20095;-83
2022/03/09 08:50:37;;;;;;;17.50;14.85;;;10.10;1.00;;;;;;5031251;28;20028;-83
2022/03/09 08:53:05;;;;;;;19.30;15.20;;;12.00;1.00;;;;;;5031354;28;20080;-83
2022/03/09 08:55:31;;;;;;;17.00;14.20;;;13.30;1.00;;;;;;5031483;28;20025;-84
2022/03/09 08:57:57;;;;;;;21.67;16.60;;;14.10;1.00;;;;;;5013911;28;20029;-84
2022/03/09 09:00:24;;;;;;;17.67;15.70;;;15.00;1.00;;;;;;5031108;28;20087;-83
2022/03/09 09:02:50;;;;;;;18.00;15.23;;;15.50;1.00;;;;;;5030680;28;20025;-84
2022/03/09 09:05:16;;;;;;;19.02;14.88;;;15.90;1.00;;;;;;5031697;28;20080;-83
2022/03/09 09:07:41;;;;;;;14.98;13.48;;;16.60;1.00;;;;;;5031222;28;20032;-84
2022/03/09 09:10:07;;;;;;;15.80;13.57;;;16.40;1.00;;;;;;5031937;28;20068;-84
2022/03/09 09:12:33;;;;;;;15.48;13.90;;;16.90;1.00;;;;;;5031144;28;20459;-84
2022/03/09 09:14:59;;;;;;;14.32;12.80;;;17.90;1.00;;;;;;5031029;28;20060;-84
2022/03/09 09:17:25;;;;;;;15.52;13.80;;;18.30;1.00;;;;;;5030669;28;20053;-83
2022/03/09 09:19:51;;;;;;;11.88;10.68;;;18.40;1.00;;;;;;5031143;28;20058;-84
2022/03/09 09:22:17;;;;;;;10.20;9.23;;;18.00;1.00;;;;;;5031442;28;20072;-84
2022/03/09 09:24:43;;;;;;;12.27;9.60;;;18.10;1.00;;;;;;5031125;28;20029;-84
2022/03/09 09:27:09;;;;;;;10.10;9.10;;;18.50;1.00;;;;;;5031318;28;20489;-84
2022/03/09 09:29:34;;;;;;;10.57;9.48;;;18.70;1.00;;;;;;5030821;28;20441;-84
2022/03/09 09:32:01;;;;;;;11.05;9.48;;;19.30;99.90;;;;;;5030482;28;20048;-84
2022/03/09 09:34:27;;;;;;;10.70;9.60;;;19.40;99.90;;;;;;5031054;28;20034;-84
2022/03/09 09:36:52;;;;;;;10.90;9.65;;;19.70;99.90;;;;;;5031289;28;20075;-84
2022/03/09 09:39:19;;;;;;;10.55;8.80;;;19.70;99.90;;;;;;5030741;28;20057;-84
2022/03/09 09:41:48;;;;;;;10.23;9.18;;;19.40;99.90;;;;;;5030928;28;20026;-84
2022/03/09 09:44:14;;;;;;;11.10;9.30;;;19.70;99.90;;;;;;5031208;28;20033;-84
2022/03/09 09:46:41;;;;;;;9.90;8.85;;;19.90;99.90;;;;;;5030216;28;20030;-84
2022/03/09 09:49:12;;;;;;;11.27;9.85;;;19.30;99.90;;;;;;5031301;28;20040;-84
2022/03/09 09:51:40;;;;;;;10.80;9.63;;;19.20;99.90;;;;;;5031091;28;20029;-84
2022/03/09 09:54:06;;;;;;;10.55;9.45;;;19.90;99.90;;;;;;5030546;28;20635;-84
2022/03/09 09:56:40;;;;;;;12.32;10.07;;;20.00;99.90;;;;;;5032247;28;20044;-83
2022/03/09 09:59:07;;;;;;;9.68;8.77;;;19.60;99.90;;;;;;5034177;28;20512;-84
2022/03/09 10:01:33;;;;;;;12.75;8.57;;;20.00;99.90;;;;;;5034076;28;20065;-84
2022/03/09 10:03:59;;;;;;;10.20;9.18;;;20.00;99.90;;;;;;5032902;28;20525;-84
2022/03/09 10:06:25;;;;;;;9.80;8.80;;;20.80;99.90;;;;;;5034521;28;20158;-84
2022/03/09 10:09:08;;;;;;;9.45;8.55;;;20.80;99.90;;;;;;5034122;28;20062;-83
2022/03/09 10:11:55;;;;;;;9.48;8.50;;;19.70;99.90;;;;;;5034064;28;20021;-84
2022/03/09 10:14:53;;;;;;;10.63;9.60;;;18.20;99.90;;;;;;5034336;28;20033;-83
2022/03/09 10:17:28;;;;;;;9.88;8.95;;;18.80;99.90;;;;;;5022740;28;20017;-84
2022/03/09 10:20:07;;;;;;;10.77;9.77;;;19.80;99.90;;;;;;5019223;28;20032;-84
2022/03/09 10:22:35;;;;;;;12.20;10.90;;;19.40;99.90;;;;;;5033900;28;20518;-84
2022/03/09 10:25:17;;;;;;;11.25;10.15;;;19.90;99.90;;;;;;5034462;28;20041;-83
2022/03/09 10:27:47;;;;;;;10.48;9.57;;;20.70;99.90;;;;;;5034236;28;20103;-83
2022/03/09 10:30:18;;;;;;;10.63;9.52;;;20.90;99.90;;;;;;5033451;28;20040;-84
2022/03/09 10:32:44;;;;;;;11.48;10.38;;;21.30;99.90;;;;;;5033761;28;20409;-83
2022/03/09 10:35:11;;;;;;;11.95;10.73;;;22.20;99.90;;;;;;5033846;28;20078;-84
2022/03/09 10:37:41;;;;;;;13.18;11.80;;;21.20;99.90;;;;;;5033797;28;20037;-83
2022/03/09 10:40:20;;;;;;;13.95;11.18;;;21.30;99.90;;;;;;5034244;28;20029;-84
2022/03/09 10:42:47;;;;;;;13.35;11.48;;;22.90;99.90;;;;;;5033543;28;20029;-83
2022/03/09 10:45:17;;;;;;;12.90;11.70;;;22.50;99.90;;;;;;5033245;28;20071;-84
2022/03/09 10:47:45;;;;;;;12.05;10.90;;;20.10;99.90;;;;;;5033435;28;20025;-83
2022/03/09 10:50:11;;;;;;;12.77;11.48;;;22.30;99.90;;;;;;5033835;28;20112;-83
2022/03/09 10:52:46;;;;;;;12.75;11.48;;;23.90;99.90;;;;;;5033659;28;20026;-83
2022/03/09 10:55:25;;;;;;;12.27;10.95;;;24.60;99.90;;;;;;5033991;28;20065;-84
2022/03/09 10:57:52;;;;;;;12.48;11.18;;;23.90;99.90;;;;;;5032721;28;20029;-84
2022/03/09 11:00:43;;;;;;;12.52;11.30;;;23.50;99.90;;;;;;5033160;28;20533;-84
2022/03/09 11:03:20;;;;;;;11.68;10.57;;;23.90;99.90;;;;;;5032949;28;20026;-83
2022/03/09 11:05:50;;;;;;;11.93;10.70;;;23.70;99.90;;;;;;5033570;28;20014;-84
2022/03/09 11:08:17;;;;;;;12.30;11.07;;;24.00;99.90;;;;;;5032126;28;20074;-83
2022/03/09 11:10:46;;;;;;;12.65;11.32;;;24.20;99.90;;;;;;5033202;28;20049;-83
2022/03/09 11:13:13;;;;;;;11.93;10.82;;;24.00;99.90;;;;;;5033206;28;20441;-84
2022/03/09 11:15:43;;;;;;;11.70;10.63;;;24.10;99.90;;;;;;5032874;28;20026;-84
2022/03/09 11:18:13;;;;;;;10.93;9.88;;;23.80;99.90;;;;;;5033093;28;20056;-84
2022/03/09 11:20:39;;;;;;;11.05;9.98;;;24.90;99.90;;;;;;5032876;28;20390;-84
2022/03/09 11:23:05;;;;;;;10.65;9.65;;;25.20;99.90;;;;;;5032541;28;20049;-84
2022/03/09 11:25:31;;;;;;;10.43;9.52;;;25.40;99.90;;;;;;5033040;28;20509;-84
2022/03/09 11:27:58;;;;;;;10.10;9.10;;;22.20;99.90;;;;;;5032680;28;20095;-84
2022/03/09 11:30:36;;;;;;;9.70;8.80;;;22.90;99.90;;;;;;5032796;28;20029;-84
2022/03/09 11:33:03;;;;;;;9.77;8.80;;;23.90;99.90;;;;;;5033059;28;20021;-84
2022/03/09 11:35:41;;;;;;;9.88;8.98;;;25.00;99.90;;;;;;5032027;28;20029;-84
2022/03/09 11:38:31;;;;;;;9.57;8.68;;;25.20;99.90;;;;;;5032850;28;20025;-84
2022/03/09 11:41:16;;;;;;;10.07;9.07;;;26.20;99.90;;;;;;5017973;28;20025;-84
2022/03/09 11:43:42;;;;;;;10.98;8.60;;;22.80;99.90;;;;;;5032168;28;20030;-84
2022/03/09 11:46:08;;;;;;;10.07;9.10;;;22.10;99.90;;;;;;5033042;28;20036;-84
2022/03/09 11:48:56;;;;;;;9.85;8.85;;;21.00;99.90;;;;;;5032604;28;20037;-84
2022/03/09 11:51:29;;;;;;;10.23;9.23;;;19.50;99.90;;;;;;5032217;28;20030;-83
2022/03/09 11:54:00;;;;;;;9.30;8.40;;;19.70;99.90;;;;;;5032179;28;20112;-83
2022/03/09 11:56:36;;;;;;;10.35;9.20;;;20.50;99.90;;;;;;5031785;28;20473;-83
2022/03/09 11:59:28;;;;;;;9.77;8.77;;;19.20;99.90;;;;;;5032192;28;20048;-84
2022/03/09 12:02:07;;;;;;;11.75;8.63;;;19.00;99.90;;;;;;5017350;28;20029;-84
2022/03/09 12:04:53;;;;;;;8.90;7.97;;;23.20;99.90;;;;;;5032101;28;20057;-84
2022/03/09 12:07:33;;;;;;;10.02;8.38;;;24.20;99.90;;;;;;5028810;28;20022;-84
2022/03/09 12:10:11;;;;;;;8.95;8.05;;;24.00;99.90;;;;;;5030274;28;20033;-84
2022/03/09 12:12:58;;;;;;;8.95;8.15;;;25.20;99.90;;;;;;5031593;28;20112;-84
2022/03/09 12:15:24;;;;;;;10.40;9.50;;;26.50;99.90;;;;;;5032068;28;20033;-84
2022/03/09 12:17:50;;;;;;;9.90;9.00;;;23.10;99.90;;;;;;5031774;28;20490;-84
2022/03/09 12:20:19;;;;;;;9.68;8.68;;;24.90;99.90;;;;;;5031838;28;20482;-84
2022/03/09 12:23:00;;;;;;;9.23;8.40;;;24.80;99.90;;;;;;5031609;28;20049;-84
2022/03/09 12:25:44;;;;;;;9.25;8.35;;;25.10;99.90;;;;;;5028843;28;20482;-84
2022/03/09 12:28:24;;;;;;;9.60;8.48;;;22.40;99.90;;;;;;5031762;28;20034;-84
2022/03/09 12:31:08;;;;;;;9.68;8.55;;;24.70;99.90;;;;;;5031731;28;20072;-84
2022/03/09 12:33:33;;;;;;;9.73;8.82;;;23.80;99.90;;;;;;5015204;28;20069;-84
2022/03/09 12:36:09;;;;;;;8.55;7.70;;;21.40;99.90;;;;;;5031549;28;20127;-84
2022/03/09 12:38:39;;;;;;;9.13;8.32;;;22.10;99.90;;;;;;5031854;28;20375;-84
2022/03/09 12:41:05;;;;;;;9.55;8.60;;;23.90;99.90;;;;;;5030764;28;20092;-83
2022/03/09 12:43:46;;;;;;;9.60;8.70;;;25.20;99.90;;;;;;5031346;28;20033;-84
2022/03/09 12:46:12;;;;;;;9.02;8.27;;;26.00;99.90;;;;;;5032071;28;20493;-84
2022/03/09 12:48:41;;;;;;;8.90;8.00;;;24.80;99.90;;;;;;5031259;28;20048;-84